sensor_id;sensor_type;location;lat;lon;timestamp;P1;durP1;ratioP1;P2;durP2;ratioP2
12425;SDS011;6277;49.824;9.562;2023-04-24T00:00:35;2.47;;;1.00;;
12425;SDS011;6277;49.824;9.562;2023-04-24T00:03:01;1.20;;;0.60;;
12425;SDS011;6277;49.824;9.562;2023-04-24T00:05:27;1.40;;;0.77;;
12425;SDS011;6277;49.824;9.562;2023-04-24T00:07:53;0.90;;;0.57;;
12425;SDS011;6277;49.824;9.562;2023-04-24T00:10:20;1.17;;;0.65;;
12425;SDS011;6277;49.824;9.562;2023-04-24T00:12:45;0.68;;;0.50;;
12425;SDS011;6277;49.824;9.562;2023-04-24T00:15:11;1.98;;;0.65;;
12425;SDS011;6277;49.824;9.562;2023-04-24T00:17:37;1.83;;;0.70;;
12425;SDS011;6277;49.824;9.562;2023-04-24T00:20:03;0.80;;;0.60;;
12425;SDS011;6277;49.824;9.562;2023-04-24T00:22:30;1.25;;;0.60;;
12425;SDS011;6277;49.824;9.562;2023-04-24T00:24:55;1.05;;;0.65;;
12425;SDS011;6277;49.824;9.562;2023-04-24T00:27:21;1.08;;;0.63;;
12425;SDS011;6277;49.824;9.562;2023-04-24T00:29:47;1.23;;;0.55;;
12425;SDS011;6277;49.824;9.562;2023-04-24T00:32:13;1.23;;;0.52;;
12425;SDS011;6277;49.824;9.562;2023-04-24T00:34:39;1.40;;;0.60;;
12425;SDS011;6277;49.824;9.562;2023-04-24T00:37:05;2.17;;;0.50;;
12425;SDS011;6277;49.824;9.562;2023-04-24T00:39:31;1.15;;;0.60;;
12425;SDS011;6277;49.824;9.562;2023-04-24T00:41:56;1.08;;;0.50;;
12425;SDS011;6277;49.824;9.562;2023-04-24T00:44:22;1.20;;;0.60;;
12425;SDS011;6277;49.824;9.562;2023-04-24T00:46:48;1.00;;;0.52;;
12425;SDS011;6277;49.824;9.562;2023-04-24T00:49:20;1.05;;;0.38;;
12425;SDS011;6277;49.824;9.562;2023-04-24T00:51:46;1.75;;;0.60;;
12425;SDS011;6277;49.824;9.562;2023-04-24T00:54:12;1.55;;;0.43;;
12425;SDS011;6277;49.824;9.562;2023-04-24T00:56:38;0.82;;;0.60;;
12425;SDS011;6277;49.824;9.562;2023-04-24T00:59:05;0.80;;;0.50;;
12425;SDS011;6277;49.824;9.562;2023-04-24T01:01:31;1.95;;;0.70;;
12425;SDS011;6277;49.824;9.562;2023-04-24T01:03:57;0.40;;;0.30;;
12425;SDS011;6277;49.824;9.562;2023-04-24T01:06:23;0.50;;;0.40;;
12425;SDS011;6277;49.824;9.562;2023-04-24T01:08:53;0.65;;;0.40;;
12425;SDS011;6277;49.824;9.562;2023-04-24T01:11:20;0.80;;;0.40;;
12425;SDS011;6277;49.824;9.562;2023-04-24T01:13:46;0.22;;;0.22;;
12425;SDS011;6277;49.824;9.562;2023-04-24T01:16:13;0.40;;;0.38;;
12425;SDS011;6277;49.824;9.562;2023-04-24T01:18:40;0.60;;;0.50;;
12425;SDS011;6277;49.824;9.562;2023-04-24T01:21:06;0.60;;;0.38;;
12425;SDS011;6277;49.824;9.562;2023-04-24T01:23:33;0.88;;;0.40;;
12425;SDS011;6277;49.824;9.562;2023-04-24T01:25:59;2.25;;;0.52;;
12425;SDS011;6277;49.824;9.562;2023-04-24T01:28:25;0.40;;;0.40;;
12425;SDS011;6277;49.824;9.562;2023-04-24T01:30:51;1.15;;;0.57;;
12425;SDS011;6277;49.824;9.562;2023-04-24T01:33:17;1.20;;;0.40;;
12425;SDS011;6277;49.824;9.562;2023-04-24T01:35:43;0.70;;;0.63;;
12425;SDS011;6277;49.824;9.562;2023-04-24T01:38:09;0.60;;;0.40;;
12425;SDS011;6277;49.824;9.562;2023-04-24T01:40:34;0.73;;;0.50;;
12425;SDS011;6277;49.824;9.562;2023-04-24T01:43:00;0.95;;;0.40;;
12425;SDS011;6277;49.824;9.562;2023-04-24T01:45:25;1.95;;;0.52;;
12425;SDS011;6277;49.824;9.562;2023-04-24T01:47:51;4.15;;;0.52;;
12425;SDS011;6277;49.824;9.562;2023-04-24T01:50:17;0.80;;;0.50;;
12425;SDS011;6277;49.824;9.562;2023-04-24T01:52:43;1.10;;;0.60;;
12425;SDS011;6277;49.824;9.562;2023-04-24T01:55:09;0.60;;;0.30;;
12425;SDS011;6277;49.824;9.562;2023-04-24T01:57:34;1.23;;;0.52;;
12425;SDS011;6277;49.824;9.562;2023-04-24T02:00:01;1.77;;;0.40;;
12425;SDS011;6277;49.824;9.562;2023-04-24T02:02:29;0.63;;;0.40;;
12425;SDS011;6277;49.824;9.562;2023-04-24T02:04:54;1.85;;;0.40;;
12425;SDS011;6277;49.824;9.562;2023-04-24T02:07:20;1.98;;;0.55;;
12425;SDS011;6277;49.824;9.562;2023-04-24T02:09:46;2.05;;;0.50;;
12425;SDS011;6277;49.824;9.562;2023-04-24T02:12:12;1.80;;;0.60;;
12425;SDS011;6277;49.824;9.562;2023-04-24T02:14:38;0.93;;;0.43;;
12425;SDS011;6277;49.824;9.562;2023-04-24T02:17:03;2.25;;;0.50;;
12425;SDS011;6277;49.824;9.562;2023-04-24T02:19:29;0.60;;;0.40;;
12425;SDS011;6277;49.824;9.562;2023-04-24T02:21:55;0.82;;;0.40;;
12425;SDS011;6277;49.824;9.562;2023-04-24T02:24:21;2.20;;;0.52;;
12425;SDS011;6277;49.824;9.562;2023-04-24T02:26:46;0.98;;;0.45;;
12425;SDS011;6277;49.824;9.562;2023-04-24T02:29:12;0.50;;;0.45;;
12425;SDS011;6277;49.824;9.562;2023-04-24T02:31:37;2.97;;;0.50;;
12425;SDS011;6277;49.824;9.562;2023-04-24T02:34:03;1.00;;;0.60;;
12425;SDS011;6277;49.824;9.562;2023-04-24T02:36:28;0.93;;;0.52;;
12425;SDS011;6277;49.824;9.562;2023-04-24T02:38:55;1.02;;;0.32;;
12425;SDS011;6277;49.824;9.562;2023-04-24T02:41:20;1.50;;;0.50;;
12425;SDS011;6277;49.824;9.562;2023-04-24T02:43:46;0.50;;;0.40;;
12425;SDS011;6277;49.824;9.562;2023-04-24T02:46:11;0.85;;;0.50;;
12425;SDS011;6277;49.824;9.562;2023-04-24T02:48:37;0.90;;;0.40;;
12425;SDS011;6277;49.824;9.562;2023-04-24T02:51:03;1.55;;;0.40;;
12425;SDS011;6277;49.824;9.562;2023-04-24T02:53:28;0.75;;;0.50;;
12425;SDS011;6277;49.824;9.562;2023-04-24T02:55:55;0.40;;;0.35;;
12425;SDS011;6277;49.824;9.562;2023-04-24T02:58:21;2.25;;;0.40;;
12425;SDS011;6277;49.824;9.562;2023-04-24T03:00:47;0.77;;;0.50;;
12425;SDS011;6277;49.824;9.562;2023-04-24T03:03:12;0.63;;;0.40;;
12425;SDS011;6277;49.824;9.562;2023-04-24T03:05:38;0.40;;;0.40;;
12425;SDS011;6277;49.824;9.562;2023-04-24T03:08:03;0.70;;;0.40;;
12425;SDS011;6277;49.824;9.562;2023-04-24T03:10:29;0.73;;;0.50;;
12425;SDS011;6277;49.824;9.562;2023-04-24T03:12:55;2.28;;;0.40;;
12425;SDS011;6277;49.824;9.562;2023-04-24T03:15:21;1.00;;;0.55;;
12425;SDS011;6277;49.824;9.562;2023-04-24T03:17:46;1.02;;;0.55;;
12425;SDS011;6277;49.824;9.562;2023-04-24T03:20:12;0.98;;;0.50;;
12425;SDS011;6277;49.824;9.562;2023-04-24T03:22:37;1.08;;;0.52;;
12425;SDS011;6277;49.824;9.562;2023-04-24T03:25:03;1.35;;;0.60;;
12425;SDS011;6277;49.824;9.562;2023-04-24T03:27:29;1.80;;;0.40;;
12425;SDS011;6277;49.824;9.562;2023-04-24T03:29:55;0.60;;;0.50;;
12425;SDS011;6277;49.824;9.562;2023-04-24T03:32:21;2.08;;;0.80;;
12425;SDS011;6277;49.824;9.562;2023-04-24T03:34:47;1.30;;;0.70;;
12425;SDS011;6277;49.824;9.562;2023-04-24T03:37:13;1.02;;;0.60;;
12425;SDS011;6277;49.824;9.562;2023-04-24T03:39:39;1.65;;;0.60;;
12425;SDS011;6277;49.824;9.562;2023-04-24T03:42:05;1.25;;;0.50;;
12425;SDS011;6277;49.824;9.562;2023-04-24T03:44:31;1.13;;;0.60;;
12425;SDS011;6277;49.824;9.562;2023-04-24T03:46:57;0.73;;;0.57;;
12425;SDS011;6277;49.824;9.562;2023-04-24T03:49:23;1.45;;;0.70;;
12425;SDS011;6277;49.824;9.562;2023-04-24T03:51:48;0.80;;;0.50;;
12425;SDS011;6277;49.824;9.562;2023-04-24T03:54:14;0.68;;;0.40;;
12425;SDS011;6277;49.824;9.562;2023-04-24T03:56:39;2.28;;;0.50;;
12425;SDS011;6277;49.824;9.562;2023-04-24T03:59:05;1.17;;;0.47;;
12425;SDS011;6277;49.824;9.562;2023-04-24T04:01:30;1.33;;;0.40;;
12425;SDS011;6277;49.824;9.562;2023-04-24T04:03:56;1.15;;;0.70;;
12425;SDS011;6277;49.824;9.562;2023-04-24T04:06:21;1.10;;;0.57;;
12425;SDS011;6277;49.824;9.562;2023-04-24T04:08:47;0.77;;;0.50;;
12425;SDS011;6277;49.824;9.562;2023-04-24T04:11:13;1.83;;;0.70;;
12425;SDS011;6277;49.824;9.562;2023-04-24T04:13:38;2.08;;;0.70;;
12425;SDS011;6277;49.824;9.562;2023-04-24T04:16:04;3.03;;;0.70;;
12425;SDS011;6277;49.824;9.562;2023-04-24T04:18:29;1.92;;;0.82;;
12425;SDS011;6277;49.824;9.562;2023-04-24T04:20:55;1.33;;;0.65;;
12425;SDS011;6277;49.824;9.562;2023-04-24T04:23:22;0.77;;;0.50;;
12425;SDS011;6277;49.824;9.562;2023-04-24T04:25:47;1.75;;;0.50;;
12425;SDS011;6277;49.824;9.562;2023-04-24T04:28:13;1.48;;;0.47;;
12425;SDS011;6277;49.824;9.562;2023-04-24T04:30:40;1.23;;;0.60;;
12425;SDS011;6277;49.824;9.562;2023-04-24T04:33:06;1.50;;;0.65;;
12425;SDS011;6277;49.824;9.562;2023-04-24T04:35:32;1.25;;;0.60;;
12425;SDS011;6277;49.824;9.562;2023-04-24T04:37:58;0.90;;;0.50;;
12425;SDS011;6277;49.824;9.562;2023-04-24T04:40:24;1.60;;;0.60;;
12425;SDS011;6277;49.824;9.562;2023-04-24T04:42:49;1.33;;;0.60;;
12425;SDS011;6277;49.824;9.562;2023-04-24T04:45:17;0.80;;;0.60;;
12425;SDS011;6277;49.824;9.562;2023-04-24T04:47:43;1.67;;;0.60;;
12425;SDS011;6277;49.824;9.562;2023-04-24T04:50:09;1.65;;;0.63;;
12425;SDS011;6277;49.824;9.562;2023-04-24T04:52:35;1.02;;;0.60;;
12425;SDS011;6277;49.824;9.562;2023-04-24T04:55:01;0.70;;;0.70;;
12425;SDS011;6277;49.824;9.562;2023-04-24T04:57:27;1.45;;;0.70;;
12425;SDS011;6277;49.824;9.562;2023-04-24T04:59:52;0.75;;;0.50;;
12425;SDS011;6277;49.824;9.562;2023-04-24T05:02:18;1.17;;;0.63;;
12425;SDS011;6277;49.824;9.562;2023-04-24T05:04:43;1.05;;;0.70;;
12425;SDS011;6277;49.824;9.562;2023-04-24T05:07:09;1.88;;;0.80;;
12425;SDS011;6277;49.824;9.562;2023-04-24T05:09:35;1.92;;;0.60;;
12425;SDS011;6277;49.824;9.562;2023-04-24T05:12:01;1.02;;;0.65;;
12425;SDS011;6277;49.824;9.562;2023-04-24T05:14:27;0.80;;;0.70;;
12425;SDS011;6277;49.824;9.562;2023-04-24T05:16:52;1.45;;;0.88;;
12425;SDS011;6277;49.824;9.562;2023-04-24T05:19:18;1.08;;;0.80;;
12425;SDS011;6277;49.824;9.562;2023-04-24T05:21:43;2.35;;;1.00;;
12425;SDS011;6277;49.824;9.562;2023-04-24T05:24:09;1.00;;;0.80;;
12425;SDS011;6277;49.824;9.562;2023-04-24T05:26:34;1.48;;;1.00;;
12425;SDS011;6277;49.824;9.562;2023-04-24T05:29:00;1.20;;;0.70;;
12425;SDS011;6277;49.824;9.562;2023-04-24T05:31:26;1.13;;;0.80;;
12425;SDS011;6277;49.824;9.562;2023-04-24T05:33:52;1.10;;;0.95;;
12425;SDS011;6277;49.824;9.562;2023-04-24T05:36:17;1.50;;;1.00;;
12425;SDS011;6277;49.824;9.562;2023-04-24T05:38:42;1.25;;;1.00;;
12425;SDS011;6277;49.824;9.562;2023-04-24T05:41:08;1.80;;;0.90;;
12425;SDS011;6277;49.824;9.562;2023-04-24T05:43:33;0.75;;;0.70;;
12425;SDS011;6277;49.824;9.562;2023-04-24T05:45:59;1.45;;;0.90;;
12425;SDS011;6277;49.824;9.562;2023-04-24T05:48:25;2.40;;;1.30;;
12425;SDS011;6277;49.824;9.562;2023-04-24T05:50:50;1.27;;;1.10;;
12425;SDS011;6277;49.824;9.562;2023-04-24T05:53:17;1.20;;;1.10;;
12425;SDS011;6277;49.824;9.562;2023-04-24T05:55:43;1.85;;;1.38;;
12425;SDS011;6277;49.824;9.562;2023-04-24T05:58:09;1.60;;;1.13;;
12425;SDS011;6277;49.824;9.562;2023-04-24T06:00:34;1.40;;;1.17;;
12425;SDS011;6277;49.824;9.562;2023-04-24T06:03:00;1.52;;;1.30;;
12425;SDS011;6277;49.824;9.562;2023-04-24T06:05:28;1.90;;;1.33;;
12425;SDS011;6277;49.824;9.562;2023-04-24T06:07:54;1.20;;;1.10;;
12425;SDS011;6277;49.824;9.562;2023-04-24T06:10:20;1.92;;;1.60;;
12425;SDS011;6277;49.824;9.562;2023-04-24T06:12:45;1.58;;;1.25;;
12425;SDS011;6277;49.824;9.562;2023-04-24T06:15:11;1.70;;;1.30;;
12425;SDS011;6277;49.824;9.562;2023-04-24T06:17:37;1.92;;;1.50;;
12425;SDS011;6277;49.824;9.562;2023-04-24T06:20:03;2.50;;;1.55;;
12425;SDS011;6277;49.824;9.562;2023-04-24T06:22:31;2.10;;;1.65;;
12425;SDS011;6277;49.824;9.562;2023-04-24T06:24:56;1.60;;;1.50;;
12425;SDS011;6277;49.824;9.562;2023-04-24T06:27:22;1.95;;;1.50;;
12425;SDS011;6277;49.824;9.562;2023-04-24T06:29:47;2.78;;;1.67;;
12425;SDS011;6277;49.824;9.562;2023-04-24T06:32:19;1.77;;;1.60;;
12425;SDS011;6277;49.824;9.562;2023-04-24T06:34:48;2.28;;;1.35;;
12425;SDS011;6277;49.824;9.562;2023-04-24T06:37:14;3.13;;;1.67;;
12425;SDS011;6277;49.824;9.562;2023-04-24T06:39:41;1.90;;;1.60;;
12425;SDS011;6277;49.824;9.562;2023-04-24T06:42:06;1.92;;;1.38;;
12425;SDS011;6277;49.824;9.562;2023-04-24T06:44:34;1.75;;;1.60;;
12425;SDS011;6277;49.824;9.562;2023-04-24T06:47:05;3.30;;;1.63;;
12425;SDS011;6277;49.824;9.562;2023-04-24T06:49:40;2.15;;;1.55;;
12425;SDS011;6277;49.824;9.562;2023-04-24T06:52:07;5.95;;;1.70;;
12425;SDS011;6277;49.824;9.562;2023-04-24T06:54:32;2.22;;;1.90;;
12425;SDS011;6277;49.824;9.562;2023-04-24T06:56:59;3.33;;;1.77;;
12425;SDS011;6277;49.824;9.562;2023-04-24T06:59:28;2.20;;;1.55;;
12425;SDS011;6277;49.824;9.562;2023-04-24T07:01:54;1.92;;;1.40;;
12425;SDS011;6277;49.824;9.562;2023-04-24T07:04:20;4.22;;;2.05;;
12425;SDS011;6277;49.824;9.562;2023-04-24T07:06:46;2.67;;;2.00;;
12425;SDS011;6277;49.824;9.562;2023-04-24T07:09:14;1.88;;;1.60;;
12425;SDS011;6277;49.824;9.562;2023-04-24T07:11:40;2.28;;;2.08;;
12425;SDS011;6277;49.824;9.562;2023-04-24T07:14:07;2.03;;;1.80;;
12425;SDS011;6277;49.824;9.562;2023-04-24T07:16:32;2.15;;;1.95;;
12425;SDS011;6277;49.824;9.562;2023-04-24T07:18:58;3.60;;;2.20;;
12425;SDS011;6277;49.824;9.562;2023-04-24T07:21:23;3.03;;;2.20;;
12425;SDS011;6277;49.824;9.562;2023-04-24T07:23:50;2.42;;;2.10;;
12425;SDS011;6277;49.824;9.562;2023-04-24T07:26:16;2.92;;;1.92;;
12425;SDS011;6277;49.824;9.562;2023-04-24T07:28:41;2.60;;;2.30;;
12425;SDS011;6277;49.824;9.562;2023-04-24T07:31:07;3.13;;;2.33;;
12425;SDS011;6277;49.824;9.562;2023-04-24T07:33:33;2.92;;;2.42;;
12425;SDS011;6277;49.824;9.562;2023-04-24T07:35:59;2.30;;;2.00;;
12425;SDS011;6277;49.824;9.562;2023-04-24T07:38:25;3.25;;;2.00;;
12425;SDS011;6277;49.824;9.562;2023-04-24T07:40:50;2.10;;;1.90;;
12425;SDS011;6277;49.824;9.562;2023-04-24T07:43:16;3.00;;;2.05;;
12425;SDS011;6277;49.824;9.562;2023-04-24T07:45:42;2.97;;;2.00;;
12425;SDS011;6277;49.824;9.562;2023-04-24T07:48:08;2.78;;;2.25;;
12425;SDS011;6277;49.824;9.562;2023-04-24T07:50:34;2.50;;;2.30;;
12425;SDS011;6277;49.824;9.562;2023-04-24T07:53:01;2.90;;;2.65;;
12425;SDS011;6277;49.824;9.562;2023-04-24T07:55:27;3.28;;;2.45;;
12425;SDS011;6277;49.824;9.562;2023-04-24T07:57:52;2.47;;;2.25;;
12425;SDS011;6277;49.824;9.562;2023-04-24T08:00:18;2.38;;;1.98;;
12425;SDS011;6277;49.824;9.562;2023-04-24T08:02:44;2.83;;;2.28;;
12425;SDS011;6277;49.824;9.562;2023-04-24T08:05:09;2.88;;;2.20;;
12425;SDS011;6277;49.824;9.562;2023-04-24T08:07:35;2.97;;;1.95;;
12425;SDS011;6277;49.824;9.562;2023-04-24T08:10:00;2.30;;;2.10;;
12425;SDS011;6277;49.824;9.562;2023-04-24T08:12:28;5.10;;;2.10;;
12425;SDS011;6277;49.824;9.562;2023-04-24T08:14:54;3.67;;;1.92;;
12425;SDS011;6277;49.824;9.562;2023-04-24T08:17:19;2.28;;;1.83;;
12425;SDS011;6277;49.824;9.562;2023-04-24T08:19:45;1.92;;;1.67;;
12425;SDS011;6277;49.824;9.562;2023-04-24T08:22:13;1.88;;;1.42;;
12425;SDS011;6277;49.824;9.562;2023-04-24T08:24:40;2.30;;;1.70;;
12425;SDS011;6277;49.824;9.562;2023-04-24T08:27:05;2.22;;;1.60;;
12425;SDS011;6277;49.824;9.562;2023-04-24T08:29:31;2.97;;;1.40;;
12425;SDS011;6277;49.824;9.562;2023-04-24T08:31:57;2.35;;;1.40;;
12425;SDS011;6277;49.824;9.562;2023-04-24T08:34:22;1.60;;;1.50;;
12425;SDS011;6277;49.824;9.562;2023-04-24T08:36:48;1.30;;;1.20;;
12425;SDS011;6277;49.824;9.562;2023-04-24T08:39:14;1.30;;;1.20;;
12425;SDS011;6277;49.824;9.562;2023-04-24T08:41:41;1.30;;;1.20;;
12425;SDS011;6277;49.824;9.562;2023-04-24T08:44:11;1.25;;;0.85;;
12425;SDS011;6277;49.824;9.562;2023-04-24T08:46:37;1.25;;;0.90;;
12425;SDS011;6277;49.824;9.562;2023-04-24T08:49:05;1.45;;;1.23;;
12425;SDS011;6277;49.824;9.562;2023-04-24T08:51:31;1.33;;;0.90;;
12425;SDS011;6277;49.824;9.562;2023-04-24T08:53:56;1.88;;;1.20;;
12425;SDS011;6277;49.824;9.562;2023-04-24T08:56:22;1.77;;;0.90;;
12425;SDS011;6277;49.824;9.562;2023-04-24T08:58:53;1.83;;;1.10;;
12425;SDS011;6277;49.824;9.562;2023-04-24T09:01:19;1.58;;;0.95;;
12425;SDS011;6277;49.824;9.562;2023-04-24T09:03:46;1.70;;;1.00;;
12425;SDS011;6277;49.824;9.562;2023-04-24T09:06:13;1.98;;;1.00;;
12425;SDS011;6277;49.824;9.562;2023-04-24T09:08:41;1.40;;;0.80;;
12425;SDS011;6277;49.824;9.562;2023-04-24T09:11:08;1.38;;;0.90;;
12425;SDS011;6277;49.824;9.562;2023-04-24T09:13:35;1.20;;;1.00;;
12425;SDS011;6277;49.824;9.562;2023-04-24T09:16:00;1.42;;;1.00;;
12425;SDS011;6277;49.824;9.562;2023-04-24T09:18:26;1.20;;;1.00;;
12425;SDS011;6277;49.824;9.562;2023-04-24T09:20:59;1.00;;;0.90;;
12425;SDS011;6277;49.824;9.562;2023-04-24T09:23:30;0.90;;;0.57;;
12425;SDS011;6277;49.824;9.562;2023-04-24T09:25:56;1.40;;;0.85;;
12425;SDS011;6277;49.824;9.562;2023-04-24T09:28:29;1.33;;;0.82;;
12425;SDS011;6277;49.824;9.562;2023-04-24T09:31:06;1.08;;;0.90;;
12425;SDS011;6277;49.824;9.562;2023-04-24T09:33:33;0.70;;;0.68;;
12425;SDS011;6277;49.824;9.562;2023-04-24T09:35:59;2.10;;;0.82;;
12425;SDS011;6277;49.824;9.562;2023-04-24T09:38:37;1.17;;;1.08;;
12425;SDS011;6277;49.824;9.562;2023-04-24T09:41:07;1.85;;;1.20;;
12425;SDS011;6277;49.824;9.562;2023-04-24T09:43:33;3.88;;;1.15;;
12425;SDS011;6277;49.824;9.562;2023-04-24T09:46:05;1.38;;;1.02;;
12425;SDS011;6277;49.824;9.562;2023-04-24T09:48:34;1.55;;;1.10;;
12425;SDS011;6277;49.824;9.562;2023-04-24T09:51:03;1.27;;;1.15;;
12425;SDS011;6277;49.824;9.562;2023-04-24T09:53:31;1.45;;;1.00;;
12425;SDS011;6277;49.824;9.562;2023-04-24T09:56:10;0.80;;;0.80;;
12425;SDS011;6277;49.824;9.562;2023-04-24T09:58:37;1.13;;;1.02;;
12425;SDS011;6277;49.824;9.562;2023-04-24T10:01:03;1.63;;;1.08;;
12425;SDS011;6277;49.824;9.562;2023-04-24T10:03:30;1.40;;;1.30;;
12425;SDS011;6277;49.824;9.562;2023-04-24T10:05:59;1.63;;;1.27;;
12425;SDS011;6277;49.824;9.562;2023-04-24T10:08:25;1.40;;;1.30;;
12425;SDS011;6277;49.824;9.562;2023-04-24T10:10:52;1.30;;;1.20;;
12425;SDS011;6277;49.824;9.562;2023-04-24T10:13:17;1.40;;;1.30;;
12425;SDS011;6277;49.824;9.562;2023-04-24T10:15:43;1.88;;;1.40;;
12425;SDS011;6277;49.824;9.562;2023-04-24T10:18:09;1.50;;;1.40;;
12425;SDS011;6277;49.824;9.562;2023-04-24T10:20:36;1.30;;;1.20;;
12425;SDS011;6277;49.824;9.562;2023-04-24T10:23:03;1.67;;;1.42;;
12425;SDS011;6277;49.824;9.562;2023-04-24T10:25:31;2.30;;;1.00;;
12425;SDS011;6277;49.824;9.562;2023-04-24T10:27:59;1.60;;;1.23;;
12425;SDS011;6277;49.824;9.562;2023-04-24T10:30:26;1.67;;;1.10;;
12425;SDS011;6277;49.824;9.562;2023-04-24T10:32:53;1.20;;;1.10;;
12425;SDS011;6277;49.824;9.562;2023-04-24T10:35:19;1.10;;;1.00;;
12425;SDS011;6277;49.824;9.562;2023-04-24T10:38:06;5.53;;;1.13;;
12425;SDS011;6277;49.824;9.562;2023-04-24T10:40:36;2.55;;;1.20;;
12425;SDS011;6277;49.824;9.562;2023-04-24T10:43:02;1.27;;;1.17;;
12425;SDS011;6277;49.824;9.562;2023-04-24T10:45:33;1.60;;;1.30;;
12425;SDS011;6277;49.824;9.562;2023-04-24T10:48:01;1.20;;;1.05;;
12425;SDS011;6277;49.824;9.562;2023-04-24T10:50:28;1.20;;;1.10;;
12425;SDS011;6277;49.824;9.562;2023-04-24T10:53:06;1.33;;;1.17;;
12425;SDS011;6277;49.824;9.562;2023-04-24T10:55:44;1.30;;;1.05;;
12425;SDS011;6277;49.824;9.562;2023-04-24T10:58:23;1.25;;;1.00;;
12425;SDS011;6277;49.824;9.562;2023-04-24T11:01:00;0.95;;;0.90;;
12425;SDS011;6277;49.824;9.562;2023-04-24T11:03:29;1.50;;;0.90;;
12425;SDS011;6277;49.824;9.562;2023-04-24T11:05:57;2.38;;;1.00;;
12425;SDS011;6277;49.824;9.562;2023-04-24T11:08:27;1.25;;;1.05;;
12425;SDS011;6277;49.824;9.562;2023-04-24T11:16:28;1.27;;;1.00;;
12425;SDS011;6277;49.824;9.562;2023-04-24T11:27:16;1.00;;;0.80;;
12425;SDS011;6277;49.824;9.562;2023-04-24T11:34:56;0.82;;;0.80;;
12425;SDS011;6277;49.824;9.562;2023-04-24T11:37:24;1.17;;;0.80;;
12425;SDS011;6277;49.824;9.562;2023-04-24T11:39:52;0.90;;;0.90;;
12425;SDS011;6277;49.824;9.562;2023-04-24T11:42:19;1.35;;;0.80;;
12425;SDS011;6277;49.824;9.562;2023-04-24T11:44:46;0.90;;;0.77;;
12425;SDS011;6277;49.824;9.562;2023-04-24T11:47:12;1.23;;;0.90;;
12425;SDS011;6277;49.824;9.562;2023-04-24T11:49:38;1.58;;;0.90;;
12425;SDS011;6277;49.824;9.562;2023-04-24T11:52:04;1.02;;;0.70;;
12425;SDS011;6277;49.824;9.562;2023-04-24T11:54:30;1.85;;;1.00;;
12425;SDS011;6277;49.824;9.562;2023-04-24T11:56:56;1.00;;;0.90;;
12425;SDS011;6277;49.824;9.562;2023-04-24T11:59:22;0.85;;;0.80;;
12425;SDS011;6277;49.824;9.562;2023-04-24T12:01:48;0.93;;;0.85;;
12425;SDS011;6277;49.824;9.562;2023-04-24T12:04:15;1.55;;;0.80;;
12425;SDS011;6277;49.824;9.562;2023-04-24T12:07:00;1.38;;;1.00;;
12425;SDS011;6277;49.824;9.562;2023-04-24T12:09:40;1.33;;;0.90;;
12425;SDS011;6277;49.824;9.562;2023-04-24T12:12:10;1.83;;;0.80;;
12425;SDS011;6277;49.824;9.562;2023-04-24T12:17:17;1.35;;;0.82;;
12425;SDS011;6277;49.824;9.562;2023-04-24T12:19:46;1.00;;;0.70;;
12425;SDS011;6277;49.824;9.562;2023-04-24T12:22:12;0.82;;;0.70;;
12425;SDS011;6277;49.824;9.562;2023-04-24T12:24:58;0.60;;;0.60;;
12425;SDS011;6277;49.824;9.562;2023-04-24T12:27:31;1.15;;;0.60;;
12425;SDS011;6277;49.824;9.562;2023-04-24T12:30:00;0.70;;;0.70;;
12425;SDS011;6277;49.824;9.562;2023-04-24T12:32:29;1.80;;;0.85;;
12425;SDS011;6277;49.824;9.562;2023-04-24T12:34:54;1.17;;;0.80;;
12425;SDS011;6277;49.824;9.562;2023-04-24T12:37:22;0.95;;;0.70;;
12425;SDS011;6277;49.824;9.562;2023-04-24T12:40:02;1.05;;;0.85;;
12425;SDS011;6277;49.824;9.562;2023-04-24T12:42:28;1.75;;;0.75;;
12425;SDS011;6277;49.824;9.562;2023-04-24T12:45:05;1.33;;;0.80;;
12425;SDS011;6277;49.824;9.562;2023-04-24T12:47:31;3.05;;;1.00;;
12425;SDS011;6277;49.824;9.562;2023-04-24T12:49:58;1.10;;;0.90;;
12425;SDS011;6277;49.824;9.562;2023-04-24T12:52:28;1.08;;;0.80;;
12425;SDS011;6277;49.824;9.562;2023-04-24T12:54:55;1.63;;;1.20;;
12425;SDS011;6277;49.824;9.562;2023-04-24T12:57:22;2.40;;;1.08;;
12425;SDS011;6277;49.824;9.562;2023-04-24T12:59:48;0.93;;;0.77;;
12425;SDS011;6277;49.824;9.562;2023-04-24T13:02:14;1.27;;;0.95;;
12425;SDS011;6277;49.824;9.562;2023-04-24T13:04:43;1.17;;;0.88;;
12425;SDS011;6277;49.824;9.562;2023-04-24T13:07:10;1.52;;;0.82;;
12425;SDS011;6277;49.824;9.562;2023-04-24T13:09:35;1.75;;;1.13;;
12425;SDS011;6277;49.824;9.562;2023-04-24T13:12:01;0.70;;;0.70;;
12425;SDS011;6277;49.824;9.562;2023-04-24T13:14:27;1.83;;;0.82;;
12425;SDS011;6277;49.824;9.562;2023-04-24T13:16:52;1.90;;;0.88;;
12425;SDS011;6277;49.824;9.562;2023-04-24T13:19:18;1.20;;;0.90;;
12425;SDS011;6277;49.824;9.562;2023-04-24T13:21:44;2.00;;;1.30;;
12425;SDS011;6277;49.824;9.562;2023-04-24T13:24:09;4.00;;;1.42;;
12425;SDS011;6277;49.824;9.562;2023-04-24T13:26:35;1.52;;;1.30;;
12425;SDS011;6277;49.824;9.562;2023-04-24T13:29:00;3.63;;;1.40;;
12425;SDS011;6277;49.824;9.562;2023-04-24T13:31:26;2.63;;;1.40;;
12425;SDS011;6277;49.824;9.562;2023-04-24T13:33:51;2.75;;;1.30;;
12425;SDS011;6277;49.824;9.562;2023-04-24T13:36:17;2.25;;;1.13;;
12425;SDS011;6277;49.824;9.562;2023-04-24T13:38:43;1.48;;;1.17;;
12425;SDS011;6277;49.824;9.562;2023-04-24T13:41:09;3.97;;;1.30;;
12425;SDS011;6277;49.824;9.562;2023-04-24T13:43:35;1.88;;;1.42;;
12425;SDS011;6277;49.824;9.562;2023-04-24T13:46:01;2.35;;;1.40;;
12425;SDS011;6277;49.824;9.562;2023-04-24T13:48:28;4.10;;;1.45;;
12425;SDS011;6277;49.824;9.562;2023-04-24T13:50:54;1.65;;;1.40;;
12425;SDS011;6277;49.824;9.562;2023-04-24T13:53:19;2.88;;;1.35;;
12425;SDS011;6277;49.824;9.562;2023-04-24T13:55:45;2.08;;;1.38;;
12425;SDS011;6277;49.824;9.562;2023-04-24T13:58:11;2.05;;;1.08;;
12425;SDS011;6277;49.824;9.562;2023-04-24T14:00:36;2.47;;;1.40;;
12425;SDS011;6277;49.824;9.562;2023-04-24T14:03:02;1.50;;;1.27;;
12425;SDS011;6277;49.824;9.562;2023-04-24T14:05:27;2.33;;;1.50;;
12425;SDS011;6277;49.824;9.562;2023-04-24T14:07:53;2.42;;;1.92;;
12425;SDS011;6277;49.824;9.562;2023-04-24T14:10:18;2.42;;;1.45;;
12425;SDS011;6277;49.824;9.562;2023-04-24T14:12:44;1.83;;;1.65;;
12425;SDS011;6277;49.824;9.562;2023-04-24T14:15:10;2.05;;;1.60;;
12425;SDS011;6277;49.824;9.562;2023-04-24T14:17:36;1.92;;;1.50;;
12425;SDS011;6277;49.824;9.562;2023-04-24T14:20:01;2.97;;;1.77;;
12425;SDS011;6277;49.824;9.562;2023-04-24T14:22:28;2.38;;;2.03;;
12425;SDS011;6277;49.824;9.562;2023-04-24T14:24:54;1.90;;;1.70;;
12425;SDS011;6277;49.824;9.562;2023-04-24T14:27:19;1.80;;;1.30;;
12425;SDS011;6277;49.824;9.562;2023-04-24T14:29:45;2.20;;;1.60;;
12425;SDS011;6277;49.824;9.562;2023-04-24T14:32:11;2.15;;;1.60;;
12425;SDS011;6277;49.824;9.562;2023-04-24T14:34:36;0.85;;;0.82;;
12425;SDS011;6277;49.824;9.562;2023-04-24T14:37:02;1.30;;;0.98;;
12425;SDS011;6277;49.824;9.562;2023-04-24T14:39:28;1.15;;;1.05;;
12425;SDS011;6277;49.824;9.562;2023-04-24T14:41:53;1.58;;;1.35;;
12425;SDS011;6277;49.824;9.562;2023-04-24T14:44:19;1.52;;;1.40;;
12425;SDS011;6277;49.824;9.562;2023-04-24T14:46:44;1.65;;;1.20;;
12425;SDS011;6277;49.824;9.562;2023-04-24T14:49:10;2.08;;;1.48;;
12425;SDS011;6277;49.824;9.562;2023-04-24T14:51:37;4.22;;;1.52;;
12425;SDS011;6277;49.824;9.562;2023-04-24T14:54:02;2.40;;;1.60;;
12425;SDS011;6277;49.824;9.562;2023-04-24T14:56:28;2.88;;;2.03;;
12425;SDS011;6277;49.824;9.562;2023-04-24T14:58:54;2.67;;;1.60;;
12425;SDS011;6277;49.824;9.562;2023-04-24T15:01:20;2.35;;;1.70;;
12425;SDS011;6277;49.824;9.562;2023-04-24T15:03:47;2.10;;;1.90;;
12425;SDS011;6277;49.824;9.562;2023-04-24T15:06:12;2.40;;;1.80;;
12425;SDS011;6277;49.824;9.562;2023-04-24T15:08:38;1.92;;;1.52;;
12425;SDS011;6277;49.824;9.562;2023-04-24T15:11:03;1.83;;;1.60;;
12425;SDS011;6277;49.824;9.562;2023-04-24T15:13:29;3.15;;;1.90;;
12425;SDS011;6277;49.824;9.562;2023-04-24T15:15:55;2.58;;;1.80;;
12425;SDS011;6277;49.824;9.562;2023-04-24T15:18:20;2.38;;;1.77;;